Defiance, Ohio
Current Conditions -  °F | °C
As of 9:10 AM on Saturday 25 Oct 2014 (Local Time) from KDFI Reporting Station
Haze Haze  
Wind Chill: 56°   Ceiling: Unl
Heat Index: 56°   Visibility: 5mi
Dew Point: 51°   Wind: 8mph
Humidity: 84%   Direction: 220°SW
Pressure: 29.89"   Gusts: NA
Location:  41.29°N, 84.36°W
Report Text: KDFI 251310Z AUTO 22007KT 5SM HZ SCT019 13/11 A2989 RMK AO2 T01330106
Loading
Personal Weather Stations






























Interactive Weather Map
Tropical Storm Tracking
New forecast layout! Learn more

10-Day Weather Forecast

Advertisements
Track Severe Weather on mobile